Time;durP1;ratioP1;P1;durP2;ratioP2;P2;SDS_P1;SDS_P2;PMS_P1;PMS_P2;Temp;Humidity;BMP_temperature;BMP_pressure;BME280_temperature;BME280_humidity;BME280_pressure;Samples;Min_cycle;Max_cycle;Signal;HPM_P1;HPM_P2
2023/03/17 00:01:08;;;;;;;;;;;;;;;13.41;42.76;100913.25;4933143;28;101447;-66
2023/03/17 00:03:40;;;;;;;;;;;;;;;13.41;42.62;100920.56;4927768;28;122011;-66
2023/03/17 00:06:14;;;;;;;;;;;;;;;13.40;42.55;100919.78;4912509;28;98354;-65
2023/03/17 00:08:41;;;;;;;;;;;;;;;13.39;42.33;100917.31;4927792;28;102238;-62
2023/03/17 00:11:10;;;;;;;;;;;;;;;13.38;42.53;100915.69;4928308;28;97954;-65
2023/03/17 00:13:37;;;;;;;;;;;;;;;13.36;42.58;100912.44;4901585;28;98071;-62
2023/03/17 00:16:03;;;;;;;;;;;;;;;13.35;42.70;100914.34;4932665;28;98510;-66
2023/03/17 00:18:30;;;;;;;;;;;;;;;13.35;42.47;100913.53;4932016;28;106150;-65
2023/03/17 00:20:56;;;;;;;;;;;;;;;13.33;42.41;100903.00;4930992;28;99436;-65
2023/03/17 00:23:23;;;;;;;;;;;;;;;13.32;42.61;100904.06;4896077;28;98297;-62
2023/03/17 00:25:50;;;;;;;;;;;;;;;13.30;42.46;100895.41;4918665;28;98972;-61
2023/03/17 00:28:19;;;;;;;;;;;;;;;13.29;42.39;100890.28;4931938;28;98694;-67
2023/03/17 00:30:46;;;;;;;;;;;;;;;13.27;42.32;100888.66;4917879;28;98141;-62
2023/03/17 00:33:14;;;;;;;;;;;;;;;13.26;42.38;100886.22;4929778;28;97879;-62
2023/03/17 00:35:41;;;;;;;;;;;;;;;13.24;42.41;100881.09;4931299;28;98212;-62
2023/03/17 00:38:10;;;;;;;;;;;;;;;13.23;42.40;100879.44;4921233;28;100674;-64
2023/03/17 00:40:36;;;;;;;;;;;;;;;13.21;42.40;100872.69;4917363;28;97866;-66
2023/03/17 00:43:02;;;;;;;;;;;;;;;13.20;42.63;100865.63;4931001;28;115830;-66
2023/03/17 00:45:28;;;;;;;;;;;;;;;13.18;42.36;100860.50;4928890;28;98330;-62
2023/03/17 00:47:56;;;;;;;;;;;;;;;13.16;42.40;100859.94;4932070;28;99658;-62
2023/03/17 00:50:24;;;;;;;;;;;;;;;13.16;42.64;100856.44;4915555;28;97948;-65
2023/03/17 00:52:51;;;;;;;;;;;;;;;13.15;42.56;100858.34;4935234;28;98188;-62
2023/03/17 00:55:18;;;;;;;;;;;;;;;13.13;42.54;100855.09;4934856;28;98463;-61
2023/03/17 00:57:44;;;;;;;;;;;;;;;13.13;42.53;100855.09;4931427;28;124469;-63
2023/03/17 01:00:21;;;;;;;;;;;;;;;13.12;42.56;100855.38;4900209;28;119025;-62
2023/03/17 01:02:48;;;;;;;;;;;;;;;13.10;42.68;100847.53;4931473;28;98376;-62
2023/03/17 01:05:14;;;;;;;;;;;;;;;13.10;42.80;100850.22;4931045;28;99402;-61
2023/03/17 01:07:40;;;;;;;;;;;;;;;13.10;42.72;100842.13;4931150;28;98847;-64
2023/03/17 01:10:15;;;;;;;;;;;;;;;13.09;42.48;100839.69;4917993;28;98193;-65
2023/03/17 01:12:41;;;;;;;;;;;;;;;13.08;42.53;100833.44;4931651;28;98341;-62
2023/03/17 01:15:08;;;;;;;;;;;;;;;13.08;42.39;100836.16;4932243;28;98849;-66
2023/03/17 01:17:34;;;;;;;;;;;;;;;13.07;42.50;100825.63;4930121;28;126227;-62
2023/03/17 01:20:00;;;;;;;;;;;;;;;13.06;42.62;100822.09;4930700;28;127545;-61
2023/03/17 01:22:26;;;;;;;;;;;;;;;13.05;42.30;100817.78;4932369;28;123065;-62
2023/03/17 01:24:52;;;;;;;;;;;;;;;13.06;42.48;100818.59;4931879;28;128035;-65
2023/03/17 01:27:18;;;;;;;;;;;;;;;13.04;42.58;100818.84;4932309;28;98323;-64
2023/03/17 01:29:44;;;;;;;;;;;;;;;13.02;42.47;100816.44;4910683;28;127920;-65
2023/03/17 01:32:10;;;;;;;;;;;;;;;13.03;42.62;100820.75;4931158;28;122569;-66
2023/03/17 01:34:36;;;;;;;;;;;;;;;13.02;42.39;100818.31;4929332;28;98415;-65
2023/03/17 01:37:02;;;;;;;;;;;;;;;13.02;42.35;100821.84;4932127;28;127840;-65
2023/03/17 01:39:28;;;;;;;;;;;;;;;13.02;42.54;100812.91;4910502;28;127408;-62
2023/03/17 01:42:00;;;;;;;;;;;;;;;13.01;42.66;100811.31;4922828;28;122076;-62
2023/03/17 01:44:26;;;;;;;;;;;;;;;13.01;42.53;100805.88;4933633;28;98228;-65
2023/03/17 01:46:53;;;;;;;;;;;;;;;13.00;42.62;100806.94;4933962;28;98644;-62
2023/03/17 01:49:26;;;;;;;;;;;;;;;12.99;42.47;100800.72;4933079;28;98211;-65
2023/03/17 01:52:02;;;;;;;;;;;;;;;13.00;42.65;100796.13;4917491;28;97884;-65
2023/03/17 01:54:30;;;;;;;;;;;;;;;12.99;42.46;100786.41;4931281;28;119117;-64
2023/03/17 01:56:57;;;;;;;;;;;;;;;12.98;42.40;100784.78;4927676;28;98289;-62
2023/03/17 01:59:28;;;;;;;;;;;;;;;12.98;42.59;100779.38;4912038;28;125215;-62
2023/03/17 02:01:56;;;;;;;;;;;;;;;12.97;42.49;100778.56;4902342;28;119548;-62
2023/03/17 02:04:22;;;;;;;;;;;;;;;12.98;42.58;100787.50;4899621;28;109483;-65
2023/03/17 02:06:49;;;;;;;;;;;;;;;12.97;42.50;100788.59;4908059;28;127601;-65
2023/03/17 02:09:16;;;;;;;;;;;;;;;12.97;42.52;100785.88;4913401;28;98484;-62
2023/03/17 02:11:42;;;;;;;;;;;;;;;12.97;42.71;100789.38;4929814;28;97907;-66
2023/03/17 02:14:08;;;;;;;;;;;;;;;12.96;42.33;100784.22;4914156;28;99073;-65
2023/03/17 02:16:34;;;;;;;;;;;;;;;12.94;42.48;100781.81;4931826;28;98770;-62
2023/03/17 02:19:00;;;;;;;;;;;;;;;12.93;42.47;100774.78;4931227;28;128233;-66
2023/03/17 02:21:46;;;;;;;;;;;;;;;12.93;42.60;100774.78;4931382;28;98016;-63
2023/03/17 02:24:34;;;;;;;;;;;;;;;12.92;42.53;100767.75;4917927;28;98241;-62
2023/03/17 02:27:04;;;;;;;;;;;;;;;12.91;42.56;100762.63;4925040;28;98815;-65
2023/03/17 02:29:32;;;;;;;;;;;;;;;12.91;42.52;100763.41;4948041;28;98092;-65
2023/03/17 02:31:59;;;;;;;;;;;;;;;12.90;42.62;100753.69;4936664;28;98045;-61
2023/03/17 02:34:25;;;;;;;;;;;;;;;12.89;42.59;100754.78;4948877;28;98893;-65
2023/03/17 02:36:51;;;;;;;;;;;;;;;12.89;42.42;100751.25;4951298;28;98491;-65
2023/03/17 02:39:17;;;;;;;;;;;;;;;12.88;42.58;100758.56;4950037;28;126671;-61
2023/03/17 02:41:43;;;;;;;;;;;;;;;12.87;42.68;100745.31;4952612;28;123873;-64
2023/03/17 02:44:09;;;;;;;;;;;;;;;12.87;42.43;100740.72;4950039;28;127581;-64
2023/03/17 02:46:35;;;;;;;;;;;;;;;12.87;42.50;100742.59;4949350;28;128502;-65
2023/03/17 02:49:00;;;;;;;;;;;;;;;12.86;42.56;100739.09;4945749;28;98067;-65
2023/03/17 02:51:27;;;;;;;;;;;;;;;12.86;42.52;100744.50;4950716;28;97947;-61
2023/03/17 02:53:52;;;;;;;;;;;;;;;12.85;42.63;100751.00;4946356;28;112418;-65
2023/03/17 02:56:18;;;;;;;;;;;;;;;12.85;42.56;100748.31;4949187;28;98360;-61
2023/03/17 02:58:45;;;;;;;;;;;;;;;12.84;42.56;100749.38;4949202;28;127720;-65
2023/03/17 03:01:11;;;;;;;;;;;;;;;12.84;42.53;100746.66;4950799;28;97979;-63
2023/03/17 03:03:37;;;;;;;;;;;;;;;12.84;42.32;100737.75;4951318;28;98354;-65
2023/03/17 03:06:03;;;;;;;;;;;;;;;12.83;42.53;100739.63;4950128;28;125524;-61
2023/03/17 03:08:29;;;;;;;;;;;;;;;12.82;42.51;100732.63;4946972;28;113111;-61
2023/03/17 03:10:55;;;;;;;;;;;;;;;12.82;42.61;100729.91;4948260;28;98015;-66
2023/03/17 03:13:22;;;;;;;;;;;;;;;12.81;42.61;100714.78;4950086;28;98822;-65
2023/03/17 03:15:48;;;;;;;;;;;;;;;12.82;42.35;100721.00;4930267;28;98360;-66
2023/03/17 03:18:14;;;;;;;;;;;;;;;12.80;42.52;100720.44;4947070;28;127614;-64
2023/03/17 03:20:42;;;;;;;;;;;;;;;12.81;42.45;100733.72;4950362;28;122984;-61
2023/03/17 03:23:08;;;;;;;;;;;;;;;12.81;42.33;100733.72;4949232;28;98977;-63
2023/03/17 03:25:36;;;;;;;;;;;;;;;12.81;42.41;100732.88;4949629;28;128880;-64
2023/03/17 03:28:03;;;;;;;;;;;;;;;12.81;42.44;100739.13;4947134;28;98462;-61
2023/03/17 03:30:28;;;;;;;;;;;;;;;12.82;42.58;100731.81;4937203;28;117127;-62
2023/03/17 03:32:55;;;;;;;;;;;;;;;12.81;42.60;100739.13;4948860;28;114928;-61
2023/03/17 03:35:20;;;;;;;;;;;;;;;12.81;42.60;100744.53;4951889;28;98053;-61
2023/03/17 03:37:46;;;;;;;;;;;;;;;12.80;42.48;100742.09;4952530;28;119771;-62
2023/03/17 03:40:13;;;;;;;;;;;;;;;12.78;42.67;100748.59;4949192;28;121867;-65
2023/03/17 03:42:39;;;;;;;;;;;;;;;12.79;42.62;100749.41;4947995;28;99641;-61
2023/03/17 03:45:08;;;;;;;;;;;;;;;12.78;42.43;100753.19;4949135;28;126930;-61
2023/03/17 03:47:34;;;;;;;;;;;;;;;12.78;42.60;100756.69;4945571;28;126363;-65
2023/03/17 03:50:00;;;;;;;;;;;;;;;12.77;42.48;100755.09;4948443;28;97931;-65
2023/03/17 03:52:26;;;;;;;;;;;;;;;12.78;42.55;100755.91;4948996;28;97897;-61
2023/03/17 03:54:52;;;;;;;;;;;;;;;12.77;42.47;100754.25;4952451;28;128024;-64
2023/03/17 03:57:17;;;;;;;;;;;;;;;12.76;42.36;100749.94;4952535;28;126561;-61
2023/03/17 03:59:43;;;;;;;;;;;;;;;12.77;42.20;100740.72;4950415;28;123302;-62
2023/03/17 04:02:10;;;;;;;;;;;;;;;12.76;42.51;100736.41;4952422;28;128839;-61
2023/03/17 04:04:36;;;;;;;;;;;;;;;12.75;42.54;100740.22;4935598;28;98219;-61
2023/03/17 04:07:02;;;;;;;;;;;;;;;12.73;42.53;100743.19;4940236;28;99820;-64
2023/03/17 04:09:28;;;;;;;;;;;;;;;12.74;42.64;100750.22;4952846;28;97821;-61
2023/03/17 04:11:54;;;;;;;;;;;;;;;12.73;42.40;100743.19;4953106;28;98631;-64
2023/03/17 04:14:20;;;;;;;;;;;;;;;12.73;42.51;100745.91;4953479;28;98804;-61
2023/03/17 04:16:46;;;;;;;;;;;;;;;12.74;42.35;100750.22;4955856;28;106707;-61
2023/03/17 04:19:12;;;;;;;;;;;;;;;12.73;42.33;100745.06;4951684;27;123178;-64
2023/03/17 04:21:37;;;;;;;;;;;;;;;12.71;42.45;100742.66;4952582;28;128644;-61
2023/03/17 04:24:04;;;;;;;;;;;;;;;12.71;42.57;100734.53;4938660;28;128621;-61
2023/03/17 04:26:30;;;;;;;;;;;;;;;12.71;42.47;100739.13;4950298;28;105144;-61
2023/03/17 04:28:57;;;;;;;;;;;;;;;12.70;42.39;100749.16;4950212;28;98100;-65
2023/03/17 04:31:23;;;;;;;;;;;;;;;12.71;42.46;100748.06;4953987;28;99512;-61
2023/03/17 04:33:49;;;;;;;;;;;;;;;12.71;42.30;100731.03;4952398;28;128981;-65
2023/03/17 04:36:20;;;;;;;;;;;;;;;12.71;42.46;100734.53;4951246;28;127521;-61
2023/03/17 04:38:46;;;;;;;;;;;;;;;12.71;42.34;100731.84;4950679;28;98082;-61
2023/03/17 04:41:12;;;;;;;;;;;;;;;12.71;42.55;100725.63;4952815;28;98126;-65
2023/03/17 04:43:38;;;;;;;;;;;;;;;12.70;42.33;100724.00;4953491;28;126975;-64
2023/03/17 04:46:04;;;;;;;;;;;;;;;12.70;42.62;100718.59;4948465;28;127923;-64
2023/03/17 04:48:30;;;;;;;;;;;;;;;12.71;42.31;100703.97;4954754;28;98554;-61
2023/03/17 04:50:57;;;;;;;;;;;;;;;12.69;42.37;100698.84;4944475;28;99066;-61
2023/03/17 04:53:23;;;;;;;;;;;;;;;12.69;42.32;100693.44;4938167;28;99371;-65
2023/03/17 04:55:49;;;;;;;;;;;;;;;12.70;42.29;100699.66;4949283;28;98159;-61
2023/03/17 04:58:15;;;;;;;;;;;;;;;12.69;42.40;100709.69;4948781;28;122764;-64
2023/03/17 05:00:41;;;;;;;;;;;;;;;12.69;42.59;100700.72;4935728;28;129141;-61
2023/03/17 05:03:07;;;;;;;;;;;;;;;12.68;42.46;100697.22;4951521;28;101014;-61
2023/03/17 05:05:33;;;;;;;;;;;;;;;12.69;42.54;100708.84;4948565;28;127352;-65
2023/03/17 05:07:59;;;;;;;;;;;;;;;12.68;42.45;100693.72;4945287;28;113205;-64
2023/03/17 05:10:25;;;;;;;;;;;;;;;12.69;42.58;100692.63;4950487;28;98472;-64
2023/03/17 05:12:51;;;;;;;;;;;;;;;12.68;42.34;100691.81;4950369;28;99014;-62
2023/03/17 05:15:17;;;;;;;;;;;;;;;12.68;42.37;100696.41;4950354;28;127344;-65
2023/03/17 05:17:43;;;;;;;;;;;;;;;12.68;42.56;100693.72;4949454;28;120994;-65
2023/03/17 05:20:09;;;;;;;;;;;;;;;12.69;42.45;100689.91;4952730;28;126833;-62
2023/03/17 05:22:36;;;;;;;;;;;;;;;12.70;42.43;100703.19;4940579;28;121776;-61
2023/03/17 05:25:03;;;;;;;;;;;;;;;12.70;42.43;100697.75;4934152;28;99850;-61
2023/03/17 05:27:29;;;;;;;;;;;;;;;12.71;42.39;100706.69;4949077;28;97948;-61
2023/03/17 05:29:55;;;;;;;;;;;;;;;12.71;42.33;100704.78;4951801;28;106218;-61
2023/03/17 05:32:21;;;;;;;;;;;;;;;12.74;42.49;100708.84;4950820;28;128456;-61
2023/03/17 05:34:47;;;;;;;;;;;;;;;12.75;42.28;100708.56;4950782;28;128437;-61
2023/03/17 05:37:13;;;;;;;;;;;;;;;12.76;42.41;100707.47;4937903;28;121399;-64
2023/03/17 05:39:39;;;;;;;;;;;;;;;12.78;42.40;100701.78;4956787;28;99342;-66
2023/03/17 05:42:05;;;;;;;;;;;;;;;12.80;42.28;100698.81;4922938;28;127634;-65
2023/03/17 05:44:31;;;;;;;;;;;;;;;12.82;42.39;100705.56;4952809;28;99393;-61
2023/03/17 05:46:58;;;;;;;;;;;;;;;12.85;42.42;100709.59;4952714;28;122696;-61
2023/03/17 05:49:25;;;;;;;;;;;;;;;12.85;42.44;100694.19;4954524;28;98729;-62
2023/03/17 05:51:51;;;;;;;;;;;;;;;12.89;42.12;100707.97;4955901;28;98773;-61
2023/03/17 05:54:17;;;;;;;;;;;;;;;12.92;42.53;100708.22;4953012;28;128543;-62
2023/03/17 05:56:43;;;;;;;;;;;;;;;12.97;42.21;100716.34;4955911;28;97832;-61
2023/03/17 05:59:13;;;;;;;;;;;;;;;13.03;42.01;100717.09;4949659;28;127823;-61
2023/03/17 06:01:39;;;;;;;;;;;;;;;13.10;42.13;100716.81;4936243;28;98403;-61
2023/03/17 06:04:05;;;;;;;;;;;;;;;13.15;42.14;100714.06;4953311;28;97938;-61
2023/03/17 06:06:31;;;;;;;;;;;;;;;13.21;42.00;100712.97;4955618;28;122442;-61
2023/03/17 06:08:57;;;;;;;;;;;;;;;13.25;42.03;100704.03;4951270;28;127124;-61
2023/03/17 06:11:23;;;;;;;;;;;;;;;13.31;42.05;100710.22;4946431;28;128563;-65
2023/03/17 06:13:49;;;;;;;;;;;;;;;13.36;42.10;100722.91;4954993;28;98595;-61
2023/03/17 06:16:15;;;;;;;;;;;;;;;13.41;42.14;100720.22;4952703;28;121889;-65
2023/03/17 06:18:41;;;;;;;;;;;;;;;13.46;41.96;100722.88;4952488;28;98175;-64
2023/03/17 06:21:07;;;;;;;;;;;;;;;13.51;42.17;100729.06;4951637;28;128131;-61
2023/03/17 06:23:33;;;;;;;;;;;;;;;13.57;41.98;100734.47;4933024;28;126685;-62
2023/03/17 06:25:59;;;;;;;;;;;;;;;13.63;41.73;100731.41;4951555;28;97976;-61
2023/03/17 06:28:25;;;;;;;;;;;;;;;13.69;42.05;100729.50;4947308;28;98505;-65
2023/03/17 06:30:51;;;;;;;;;;;;;;;13.77;41.66;100725.38;4949827;28;127321;-64
2023/03/17 06:33:18;;;;;;;;;;;;;;;13.82;41.74;100722.63;4950492;28;99373;-66
2023/03/17 06:35:43;;;;;;;;;;;;;;;13.91;41.70;100729.88;4945833;28;98250;-61
2023/03/17 06:38:09;;;;;;;;;;;;;;;14.00;41.91;100730.88;4919416;28;127365;-62
2023/03/17 06:40:35;;;;;;;;;;;;;;;14.11;41.61;100733.50;4930490;28;126942;-65
2023/03/17 06:43:01;;;;;;;;;;;;;;;14.21;41.83;100738.84;4932693;28;98246;-65
2023/03/17 06:45:27;;;;;;;;;;;;;;;14.33;41.21;100730.31;4932602;28;97900;-62
2023/03/17 06:47:53;;;;;;;;;;;;;;;14.43;41.33;100733.75;4947889;28;128049;-65
2023/03/17 06:50:19;;;;;;;;;;;;;;;14.52;41.42;100744.00;4952353;28;126330;-64
2023/03/17 06:52:45;;;;;;;;;;;;;;;14.56;41.68;100729.59;4953503;28;98334;-65
2023/03/17 06:55:11;;;;;;;;;;;;;;;14.64;41.69;100741.72;4951393;28;99704;-62
2023/03/17 06:57:37;;;;;;;;;;;;;;;14.68;41.75;100742.75;4947826;28;127938;-62
2023/03/17 07:00:05;;;;;;;;;;;;;;;14.75;41.61;100743.22;4949090;28;98338;-66
2023/03/17 07:02:32;;;;;;;;;;;;;;;14.82;41.30;100740.97;4953904;28;98662;-65
2023/03/17 07:04:59;;;;;;;;;;;;;;;14.88;41.57;100739.81;4935878;28;98129;-62
2023/03/17 07:07:26;;;;;;;;;;;;;;;14.97;41.06;100748.94;4953762;28;98724;-65
2023/03/17 07:09:52;;;;;;;;;;;;;;;15.08;41.58;100751.53;4951932;28;98556;-62
2023/03/17 07:12:19;;;;;;;;;;;;;;;15.16;41.14;100748.97;4948040;28;98277;-62
2023/03/17 07:14:45;;;;;;;;;;;;;;;15.22;41.34;100742.38;4952194;28;121096;-62
2023/03/17 07:17:11;;;;;;;;;;;;;;;15.32;41.28;100748.78;4950315;28;98979;-62
2023/03/17 07:19:37;;;;;;;;;;;;;;;15.40;41.39;100739.97;4951343;28;98675;-66
2023/03/17 07:22:03;;;;;;;;;;;;;;;15.49;41.27;100732.78;4952354;28;98533;-65
2023/03/17 07:24:30;;;;;;;;;;;;;;;15.58;41.12;100732.94;4948212;28;120775;-66
2023/03/17 07:26:56;;;;;;;;;;;;;;;15.68;40.95;100719.25;4958446;28;98525;-64
2023/03/17 07:29:22;;;;;;;;;;;;;;;15.88;40.96;100709.97;4959199;28;102628;-62
2023/03/17 07:31:48;;;;;;;;;;;;;;;16.08;40.71;100697.94;4958541;28;98454;-62
2023/03/17 07:34:14;;;;;;;;;;;;;;;16.16;40.79;100686.38;4957521;28;120649;-62
2023/03/17 07:36:40;;;;;;;;;;;;;;;16.15;40.93;100682.00;4957206;28;98744;-62
2023/03/17 07:39:06;;;;;;;;;;;;;;;16.13;41.11;100673.38;4957749;28;98214;-66
2023/03/17 07:41:32;;;;;;;;;;;;;;;16.14;40.89;100670.34;4959709;28;98086;-64
2023/03/17 07:43:58;;;;;;;;;;;;;;;16.20;40.97;100680.03;4959327;28;119584;-65
2023/03/17 07:46:24;;;;;;;;;;;;;;;16.27;40.90;100682.38;4958916;28;102792;-66
2023/03/17 07:48:50;;;;;;;;;;;;;;;16.31;40.92;100688.81;4955082;28;99906;-64
2023/03/17 07:51:17;;;;;;;;;;;;;;;16.33;40.98;100666.75;4957215;28;111564;-63
2023/03/17 07:53:45;;;;;;;;;;;;;;;16.34;40.98;100660.19;4956486;28;99595;-65
2023/03/17 07:56:11;;;;;;;;;;;;;;;16.41;41.00;100658.69;4954640;28;98004;-62
2023/03/17 07:58:37;;;;;;;;;;;;;;;16.49;41.06;100669.97;4954076;28;125989;-62
2023/03/17 08:01:03;;;;;;;;;;;;;;;16.63;40.89;100676.25;4953959;28;127467;-66
2023/03/17 08:03:30;;;;;;;;;;;;;;;16.79;40.72;100647.63;4956211;28;97846;-62
2023/03/17 08:05:56;;;;;;;;;;;;;;;16.90;40.72;100640.06;4941698;28;100730;-62
2023/03/17 08:08:23;;;;;;;;;;;;;;;16.99;40.81;100656.47;4954960;28;99126;-62
2023/03/17 08:10:49;;;;;;;;;;;;;;;17.16;40.47;100649.25;4956030;28;98800;-62
2023/03/17 08:13:15;;;;;;;;;;;;;;;17.53;40.27;100655.50;4955753;28;97890;-62
2023/03/17 08:15:41;;;;;;;;;;;;;;;18.65;39.33;100646.31;4939505;28;99628;-66
2023/03/17 08:18:07;;;;;;;;;;;;;;;20.08;38.00;100634.47;4936624;28;126425;-65
2023/03/17 08:20:34;;;;;;;;;;;;;;;21.42;37.09;100644.00;4927168;28;97950;-65
2023/03/17 08:23:00;;;;;;;;;;;;;;;22.07;36.91;100658.84;4957751;28;99372;-63
2023/03/17 08:25:26;;;;;;;;;;;;;;;22.76;36.67;100668.22;4934801;28;99196;-65
2023/03/17 08:27:52;;;;;;;;;;;;;;;23.61;36.40;100658.97;4952852;28;98207;-66
2023/03/17 08:30:19;;;;;;;;;;;;;;;24.98;35.51;100661.25;4955966;28;98306;-67
2023/03/17 08:32:45;;;;;;;;;;;;;;;26.32;34.67;100661.53;4956400;28;97912;-63
2023/03/17 08:35:14;;;;;;;;;;;;;;;27.23;34.39;100661.75;4957903;28;118218;-68
2023/03/17 08:37:44;;;;;;;;;;;;;;;27.75;34.29;100644.22;4926143;28;98543;-64
2023/03/17 08:40:15;;;;;;;;;;;;;;;27.80;35.08;100645.84;4932410;28;98236;-63
2023/03/17 08:42:42;;;;;;;;;;;;;;;28.85;34.29;100643.53;4953006;28;98177;-63
2023/03/17 08:45:08;;;;;;;;;;;;;;;29.24;34.09;100637.38;4953954;28;98499;-63
2023/03/17 08:47:34;;;;;;;;;;;;;;;29.42;34.67;100627.16;4951258;28;99668;-66
2023/03/17 08:50:00;;;;;;;;;;;;;;;29.49;34.67;100640.28;4954718;28;98194;-66
2023/03/17 08:52:27;;;;;;;;;;;;;;;29.29;35.43;100628.72;4951594;28;98107;-66
2023/03/17 08:54:53;;;;;;;;;;;;;;;29.57;35.10;100623.28;4954677;28;98349;-67
2023/03/17 08:57:19;;;;;;;;;;;;;;;29.48;35.72;100619.25;4952913;28;126044;-64
2023/03/17 08:59:46;;;;;;;;;;;;;;;29.51;35.91;100619.25;4951384;28;116536;-67
2023/03/17 09:02:13;;;;;;;;;;;;;;;29.61;35.90;100628.03;4950667;28;99817;-67
2023/03/17 09:04:40;;;;;;;;;;;;;;;29.62;36.17;100618.50;4952711;28;98553;-67
2023/03/17 09:07:05;;;;;;;;;;;;;;;29.79;36.19;100620.53;4953814;28;98033;-67
2023/03/17 09:09:33;;;;;;;;;;;;;;;29.72;36.26;100621.31;4917475;28;101971;-65
2023/03/17 09:11:59;;;;;;;;;;;;;;;29.96;36.22;100619.75;4938838;28;98351;-63
2023/03/17 09:14:26;;;;;;;;;;;;;;;30.17;36.28;100613.44;4951065;28;116619;-67
2023/03/17 09:16:52;;;;;;;;;;;;;;;30.23;36.54;100602.72;4956650;28;98053;-64
2023/03/17 09:19:18;;;;;;;;;;;;;;;30.44;36.38;100613.81;4953551;28;125491;-64
2023/03/17 09:21:44;;;;;;;;;;;;;;;30.54;36.50;100612.22;4953081;28;97906;-64
2023/03/17 09:24:10;;;;;;;;;;;;;;;30.77;36.58;100606.22;4952502;28;99454;-64
2023/03/17 09:26:36;;;;;;;;;;;;;;;30.95;36.65;100606.97;4952570;28;127237;-67
2023/03/17 09:29:02;;;;;;;;;;;;;;;31.12;36.59;100616.44;4949913;28;126623;-64
2023/03/17 09:31:28;;;;;;;;;;;;;;;31.15;36.85;100618.41;4951088;28;97960;-67
2023/03/17 09:33:54;;;;;;;;;;;;;;;31.27;36.95;100597.69;4939604;28;127019;-65
2023/03/17 09:36:20;;;;;;;;;;;;;;;31.35;37.09;100602.03;4946628;28;127197;-67
2023/03/17 09:38:46;;;;;;;;;;;;;;;31.33;37.18;100598.09;4950481;28;126628;-65
2023/03/17 09:41:40;;;;;;;;;;;;;;;31.33;37.42;100595.31;4950602;28;121624;-67
2023/03/17 09:44:38;;;;;;;;;;;;;;;31.32;37.22;100590.91;4952561;28;98290;-66
2023/03/17 09:47:12;;;;;;;;;;;;;;;31.39;37.09;100602.03;4919794;28;111719;-68
2023/03/17 09:49:49;;;;;;;;;;;;;;;31.56;37.08;100601.13;4954128;28;98091;-64
2023/03/17 09:52:17;;;;;;;;;;;;;;;31.60;37.28;100592.72;4934786;28;98350;-65
2023/03/17 09:54:45;;;;;;;;;;;;;;;31.73;37.26;100589.06;4924387;28;99437;-68
2023/03/17 09:57:17;;;;;;;;;;;;;;;31.82;37.25;100585.03;4953757;28;100121;-67
2023/03/17 09:59:46;;;;;;;;;;;;;;;32.13;36.85;100581.22;4936561;28;98243;-67
2023/03/17 10:02:22;;;;;;;;;;;;;;;32.40;37.11;100589.75;4954040;28;97799;-65
2023/03/17 10:04:48;;;;;;;;;;;;;;;32.49;37.18;100586.47;4949768;28;126358;-65
2023/03/17 10:07:18;;;;;;;;;;;;;;;32.72;36.80;100583.03;4955568;28;98313;-68
2023/03/17 10:10:03;;;;;;;;;;;;;;;32.95;37.05;100585.19;4936053;28;98645;-65
2023/03/17 10:12:45;;;;;;;;;;;;;;;33.32;36.99;100578.69;4936023;28;109871;-68
2023/03/17 10:15:17;;;;;;;;;;;;;;;33.78;36.25;100577.25;4934102;28;98385;-67
2023/03/17 10:17:43;;;;;;;;;;;;;;;34.18;36.36;100580.19;4931049;28;98748;-65
2023/03/17 10:20:16;;;;;;;;;;;;;;;34.52;36.39;100574.41;4935544;28;121687;-65
2023/03/17 10:23:06;;;;;;;;;;;;;;;34.88;36.15;100568.09;4951073;28;99398;-65
2023/03/17 10:25:33;;;;;;;;;;;;;;;35.42;35.89;100574.13;4922116;28;98631;-64
2023/03/17 10:28:04;;;;;;;;;;;;;;;35.80;35.82;100573.66;4951828;28;99070;-67
2023/03/17 10:30:32;;;;;;;;;;;;;;;36.11;35.69;100571.28;4954132;28;98587;-68
2023/03/17 10:32:58;;;;;;;;;;;;;;;36.40;35.88;100566.97;4954297;28;97860;-66
2023/03/17 10:35:25;;;;;;;;;;;;;;;36.61;35.68;100555.16;4932234;28;115322;-67
2023/03/17 10:37:50;;;;;;;;;;;;;;;36.59;36.03;100550.00;4952422;28;126840;-67
2023/03/17 10:40:35;;;;;;;;;;;;;;;36.65;35.80;100546.63;4952295;28;128337;-66
2023/03/17 10:43:06;;;;;;;;;;;;;;;36.56;35.88;100547.28;4936300;28;98068;-66
2023/03/17 10:45:33;;;;;;;;;;;;;;;36.54;35.96;100539.28;4939112;28;98527;-67
2023/03/17 10:48:00;;;;;;;;;;;;;;;36.64;36.00;100536.66;4950310;28;100336;-69
2023/03/17 10:50:33;;;;;;;;;;;;;;;36.86;35.47;100537.56;4938175;28;98170;-69
2023/03/17 10:53:02;;;;;;;;;;;;;;;37.23;35.23;100544.50;4933301;28;98005;-67
2023/03/17 10:55:31;;;;;;;;;;;;;;;37.51;35.37;100540.03;4954136;28;99767;-68
2023/03/17 10:58:00;;;;;;;;;;;;;;;37.84;35.26;100536.91;4919196;28;98379;-67
2023/03/17 11:00:27;;;;;;;;;;;;;;;37.52;35.60;100533.16;4956921;28;98908;-69
2023/03/17 11:02:56;;;;;;;;;;;;;;;37.51;35.53;100525.19;4935087;28;114628;-69
2023/03/17 11:05:24;;;;;;;;;;;;;;;37.38;35.03;100525.19;4941847;28;98809;-66
2023/03/17 11:07:53;;;;;;;;;;;;;;;37.27;35.28;100525.50;4957135;28;98340;-68
2023/03/17 11:10:20;;;;;;;;;;;;;;;36.95;35.91;100523.72;4921438;28;121857;-68
2023/03/17 11:12:49;;;;;;;;;;;;;;;36.82;35.58;100520.03;4954344;28;97896;-66
2023/03/17 11:15:16;;;;;;;;;;;;;;;37.66;34.25;100517.06;4952663;28;98333;-69
2023/03/17 11:17:47;;;;;;;;;;;;;;;38.37;33.72;100531.50;4948271;28;98617;-66
2023/03/17 11:20:37;;;;;;;;;;;;;;;38.62;33.63;100522.13;4924957;28;98143;-67
2023/03/17 11:23:23;;;;;;;;;;;;;;;38.61;33.70;100525.41;4952204;28;99754;-66
2023/03/17 11:25:56;;;;;;;;;;;;;;;38.50;34.38;100509.72;4938833;28;98123;-66
2023/03/17 11:28:25;;;;;;;;;;;;;;;38.09;34.58;100513.59;4946704;28;121302;-65
2023/03/17 11:31:08;;;;;;;;;;;;;;;38.01;34.97;100507.44;4932422;28;116359;-69
2023/03/17 11:33:45;;;;;;;;;;;;;;;37.87;34.58;100493.88;4950912;28;97954;-65
2023/03/17 11:36:35;;;;;;;;;;;;;;;37.58;35.35;100499.66;4936201;28;98535;-66
2023/03/17 11:39:21;;;;;;;;;;;;;;;37.22;35.13;100492.38;4925926;28;98950;-66
2023/03/17 11:42:16;;;;;;;;;;;;;;;36.84;35.20;100484.69;4954386;28;98106;-67
2023/03/17 11:45:21;;;;;;;;;;;;;;;36.42;35.76;100497.16;4948177;28;122110;-65
2023/03/17 11:48:02;;;;;;;;;;;;;;;36.15;35.86;100484.25;4955699;28;98254;-67
2023/03/17 11:51:02;;;;;;;;;;;;;;;35.99;35.80;100487.09;4951389;28;98096;-68
2023/03/17 11:53:40;;;;;;;;;;;;;;;35.80;35.76;100481.16;4952296;28;124144;-65
2023/03/17 11:56:20;;;;;;;;;;;;;;;35.45;35.98;100468.84;4952376;28;117504;-68
2023/03/17 11:58:49;;;;;;;;;;;;;;;35.09;36.07;100466.06;4939868;28;98866;-64
2023/03/17 12:01:21;;;;;;;;;;;;;;;34.81;36.23;100467.50;4921303;28;106390;-67
2023/03/17 12:04:23;;;;;;;;;;;;;;;34.57;36.23;100464.78;4948978;28;126477;-67
2023/03/17 12:06:51;;;;;;;;;;;;;;;34.35;36.31;100456.03;4915091;28;98216;-65
2023/03/17 12:09:28;;;;;;;;;;;;;;;34.22;36.22;100460.69;4933587;28;121525;-67
2023/03/17 12:11:54;;;;;;;;;;;;;;;34.12;36.24;100465.28;4950206;28;99011;-64
2023/03/17 12:14:31;;;;;;;;;;;;;;;33.94;35.94;100459.19;4937572;28;98065;-64
2023/03/17 12:17:24;;;;;;;;;;;;;;;33.69;36.09;100470.84;4940651;28;98442;-64
2023/03/17 12:19:57;;;;;;;;;;;;;;;33.41;36.14;100461.69;4943015;28;98422;-63
2023/03/17 12:22:35;;;;;;;;;;;;;;;33.12;36.74;100455.75;4939203;28;98729;-67
2023/03/17 12:25:24;;;;;;;;;;;;;;;32.87;36.46;100438.56;4921609;28;127001;-65
2023/03/17 12:28:36;;;;;;;;;;;;;;;32.61;36.84;100429.75;4938104;28;99520;-64
2023/03/17 12:31:08;;;;;;;;;;;;;;;32.13;37.09;100424.34;4951334;28;98617;-63
2023/03/17 12:33:54;;;;;;;;;;;;;;;31.82;36.93;100426.22;4935946;28;98512;-66
2023/03/17 12:36:20;;;;;;;;;;;;;;;31.36;37.22;100422.69;4937089;28;122024;-65
2023/03/17 12:38:49;;;;;;;;;;;;;;;30.94;37.34;100418.19;4954837;28;98061;-64
2023/03/17 12:41:25;;;;;;;;;;;;;;;30.52;37.56;100414.41;4933615;28;98749;-68